sensor_id;sensor_type;location;lat;lon;timestamp;pressure;altitude;pressure_sealevel;temperature;humidity
38227;BME280;24026;49.446;8.576;2023-02-10T00:01:23;102457.72;;;11.75;30.56
38227;BME280;24026;49.446;8.576;2023-02-10T00:03:44;102461.19;;;11.76;30.58
38227;BME280;24026;49.446;8.576;2023-02-10T00:06:06;102454.44;;;11.73;30.38
38227;BME280;24026;49.446;8.576;2023-02-10T00:08:27;102454.81;;;11.70;30.56
38227;BME280;24026;49.446;8.576;2023-02-10T00:10:47;102452.16;;;11.70;30.43
38227;BME280;24026;49.446;8.576;2023-02-10T00:13:08;102456.69;;;11.70;30.52
38227;BME280;24026;49.446;8.576;2023-02-10T00:15:28;102467.34;;;11.70;30.64
38227;BME280;24026;49.446;8.576;2023-02-10T00:17:49;102461.56;;;11.66;30.90
38227;BME280;24026;49.446;8.576;2023-02-10T00:20:09;102466.88;;;11.66;30.50
38227;BME280;24026;49.446;8.576;2023-02-10T00:22:30;102475.09;;;11.64;30.62
38227;BME280;24026;49.446;8.576;2023-02-10T00:24:50;102469.78;;;11.64;30.76
38227;BME280;24026;49.446;8.576;2023-02-10T00:27:11;102478.56;;;11.65;30.52
38227;BME280;24026;49.446;8.576;2023-02-10T00:29:31;102480.63;;;11.63;30.40
38227;BME280;24026;49.446;8.576;2023-02-10T00:31:52;102480.63;;;11.63;30.53
38227;BME280;24026;49.446;8.576;2023-02-10T00:34:15;102481.63;;;11.62;30.39
38227;BME280;24026;49.446;8.576;2023-02-10T00:36:36;102478.16;;;11.61;30.53
38227;BME280;24026;49.446;8.576;2023-02-10T00:38:57;102480.16;;;11.59;30.50
38227;BME280;24026;49.446;8.576;2023-02-10T00:41:18;102484.69;;;11.59;30.58
38227;BME280;24026;49.446;8.576;2023-02-10T00:43:39;102487.53;;;11.57;30.51
38227;BME280;24026;49.446;8.576;2023-02-10T00:46:00;102486.53;;;11.58;30.68
38227;BME280;24026;49.446;8.576;2023-02-10T00:48:20;102487.94;;;11.54;30.59
38227;BME280;24026;49.446;8.576;2023-02-10T00:50:41;102498.38;;;11.56;30.89
38227;BME280;24026;49.446;8.576;2023-02-10T00:53:01;102490.78;;;11.53;30.62
38227;BME280;24026;49.446;8.576;2023-02-10T00:55:22;102497.97;;;11.52;30.70
38227;BME280;24026;49.446;8.576;2023-02-10T00:57:42;102496.09;;;11.53;30.80
38227;BME280;24026;49.446;8.576;2023-02-10T01:00:03;102499.81;;;11.52;30.54
38227;BME280;24026;49.446;8.576;2023-02-10T01:02:24;102498.34;;;11.49;30.39
38227;BME280;24026;49.446;8.576;2023-02-10T01:04:44;102502.66;;;11.50;30.32
38227;BME280;24026;49.446;8.576;2023-02-10T01:07:05;102505.72;;;11.47;30.78
38227;BME280;24026;49.446;8.576;2023-02-10T01:09:25;102508.38;;;11.47;30.73
38227;BME280;24026;49.446;8.576;2023-02-10T01:11:46;102517.38;;;11.46;30.64
38227;BME280;24026;49.446;8.576;2023-02-10T01:14:06;102513.09;;;11.45;30.64
38227;BME280;24026;49.446;8.576;2023-02-10T01:16:27;102517.78;;;11.43;30.74
38227;BME280;24026;49.446;8.576;2023-02-10T01:18:47;102533.78;;;11.43;30.64
38227;BME280;24026;49.446;8.576;2023-02-10T01:21:10;102528.84;;;11.40;30.85
38227;BME280;24026;49.446;8.576;2023-02-10T01:23:31;102525.31;;;11.39;30.73
38227;BME280;24026;49.446;8.576;2023-02-10T01:25:51;102524.50;;;11.39;30.78
38227;BME280;24026;49.446;8.576;2023-02-10T01:28:11;102520.22;;;11.38;30.73
38227;BME280;24026;49.446;8.576;2023-02-10T01:30:33;102528.22;;;11.38;30.67
38227;BME280;24026;49.446;8.576;2023-02-10T01:32:54;102525.53;;;11.38;30.70
38227;BME280;24026;49.446;8.576;2023-02-10T01:35:14;102532.88;;;11.36;30.75
38227;BME280;24026;49.446;8.576;2023-02-10T01:37:34;102529.41;;;11.35;30.71
38227;BME280;24026;49.446;8.576;2023-02-10T01:39:57;102534.72;;;11.35;30.95
38227;BME280;24026;49.446;8.576;2023-02-10T01:42:18;102534.09;;;11.33;30.81
38227;BME280;24026;49.446;8.576;2023-02-10T01:46:59;102532.84;;;11.29;30.74
38227;BME280;24026;49.446;8.576;2023-02-10T01:49:24;102522.00;;;11.30;30.78
38227;BME280;24026;49.446;8.576;2023-02-10T01:51:52;102532.84;;;11.29;30.94
38227;BME280;24026;49.446;8.576;2023-02-10T01:54:18;102534.06;;;11.26;31.08
38227;BME280;24026;49.446;8.576;2023-02-10T01:56:41;102532.84;;;11.29;30.91
38227;BME280;24026;49.446;8.576;2023-02-10T01:59:02;102528.53;;;11.28;30.71
38227;BME280;24026;49.446;8.576;2023-02-10T02:01:23;102529.56;;;11.27;30.85
38227;BME280;24026;49.446;8.576;2023-02-10T02:03:43;102525.47;;;11.24;30.93
38227;BME280;24026;49.446;8.576;2023-02-10T02:06:04;102529.94;;;11.24;31.03
38227;BME280;24026;49.446;8.576;2023-02-10T02:08:28;102530.78;;;11.24;30.76
38227;BME280;24026;49.446;8.576;2023-02-10T02:10:57;102528.31;;;11.23;30.91
38227;BME280;24026;49.446;8.576;2023-02-10T02:13:45;102533.16;;;11.19;31.01
38227;BME280;24026;49.446;8.576;2023-02-10T02:24:31;102534.59;;;11.15;31.15
38227;BME280;24026;49.446;8.576;2023-02-10T02:34:39;102534.97;;;11.12;31.18
38227;BME280;24026;49.446;8.576;2023-02-10T02:39:29;102538.84;;;11.09;31.09
38227;BME280;24026;49.446;8.576;2023-02-10T02:44:35;102538.00;;;11.09;31.14
38227;BME280;24026;49.446;8.576;2023-02-10T02:49:43;102557.19;;;10.98;31.39
38227;BME280;24026;49.446;8.576;2023-02-10T02:52:35;102556.16;;;10.99;31.15
38227;BME280;24026;49.446;8.576;2023-02-10T02:55:15;102561.91;;;11.02;31.47
38227;BME280;24026;49.446;8.576;2023-02-10T02:57:46;102563.56;;;11.03;31.31
38227;BME280;24026;49.446;8.576;2023-02-10T03:00:29;102564.94;;;10.99;31.33
38227;BME280;24026;49.446;8.576;2023-02-10T03:02:51;102567.22;;;11.02;31.32
38227;BME280;24026;49.446;8.576;2023-02-10T03:05:20;102568.44;;;11.00;31.40
38227;BME280;24026;49.446;8.576;2023-02-10T03:07:42;102572.94;;;10.99;31.32
38227;BME280;24026;49.446;8.576;2023-02-10T03:10:04;102578.06;;;11.01;31.37
38227;BME280;24026;49.446;8.576;2023-02-10T03:12:24;102579.91;;;11.00;31.25
38227;BME280;24026;49.446;8.576;2023-02-10T03:14:45;102584.59;;;10.98;31.30
38227;BME280;24026;49.446;8.576;2023-02-10T03:17:05;102582.13;;;10.97;31.30
38227;BME280;24026;49.446;8.576;2023-02-10T03:19:27;102581.94;;;10.98;31.42
38227;BME280;24026;49.446;8.576;2023-02-10T03:21:47;102586.44;;;10.98;31.32
38227;BME280;24026;49.446;8.576;2023-02-10T03:24:08;102580.47;;;10.96;31.45
38227;BME280;24026;49.446;8.576;2023-02-10T03:26:29;102582.31;;;10.95;31.17
38227;BME280;24026;49.446;8.576;2023-02-10T03:28:49;102582.50;;;10.93;31.41
38227;BME280;24026;49.446;8.576;2023-02-10T03:31:10;102582.06;;;10.90;31.30
38227;BME280;24026;49.446;8.576;2023-02-10T03:33:30;102579.03;;;10.93;31.50
38227;BME280;24026;49.446;8.576;2023-02-10T03:35:51;102568.56;;;10.91;31.37
38227;BME280;24026;49.446;8.576;2023-02-10T03:38:12;102561.59;;;10.90;31.44
38227;BME280;24026;49.446;8.576;2023-02-10T03:40:33;102566.09;;;10.90;31.29
38227;BME280;24026;49.446;8.576;2023-02-10T03:42:53;102568.13;;;10.88;31.48
38227;BME280;24026;49.446;8.576;2023-02-10T03:45:13;102563.00;;;10.86;31.66
38227;BME280;24026;49.446;8.576;2023-02-10T03:47:34;102566.47;;;10.87;31.58
38227;BME280;24026;49.446;8.576;2023-02-10T03:49:54;102564.19;;;10.84;31.59
38227;BME280;24026;49.446;8.576;2023-02-10T03:52:15;102569.50;;;10.84;31.64
38227;BME280;24026;49.446;8.576;2023-02-10T03:54:35;102569.72;;;10.82;31.38
38227;BME280;24026;49.446;8.576;2023-02-10T03:56:55;102575.03;;;10.82;31.58
38227;BME280;24026;49.446;8.576;2023-02-10T03:59:16;102571.56;;;10.82;31.51
38227;BME280;24026;49.446;8.576;2023-02-10T04:01:36;102577.88;;;10.81;31.60
38227;BME280;24026;49.446;8.576;2023-02-10T04:03:57;102581.56;;;10.80;31.71
38227;BME280;24026;49.446;8.576;2023-02-10T04:06:17;102580.72;;;10.79;31.61
38227;BME280;24026;49.446;8.576;2023-02-10T04:08:38;102578.28;;;10.78;31.87
38227;BME280;24026;49.446;8.576;2023-02-10T04:10:58;102579.09;;;10.78;31.72
38227;BME280;24026;49.446;8.576;2023-02-10T04:13:19;102577.44;;;10.77;31.77
38227;BME280;24026;49.446;8.576;2023-02-10T04:15:40;102576.63;;;10.77;31.77
38227;BME280;24026;49.446;8.576;2023-02-10T04:18:00;102578.66;;;10.74;31.65
38227;BME280;24026;49.446;8.576;2023-02-10T04:20:20;102580.47;;;10.74;31.84
38227;BME280;24026;49.446;8.576;2023-02-10T04:22:41;102589.47;;;10.73;31.90
38227;BME280;24026;49.446;8.576;2023-02-10T04:25:01;102587.00;;;10.71;31.75
38227;BME280;24026;49.446;8.576;2023-02-10T04:27:22;102581.69;;;10.71;31.71
38227;BME280;24026;49.446;8.576;2023-02-10T04:29:42;102591.28;;;10.72;31.71
38227;BME280;24026;49.446;8.576;2023-02-10T04:32:03;102595.78;;;10.72;31.89
38227;BME280;24026;49.446;8.576;2023-02-10T04:34:23;102591.69;;;10.69;31.74
38227;BME280;24026;49.446;8.576;2023-02-10T04:36:43;102592.69;;;10.68;31.87
38227;BME280;24026;49.446;8.576;2023-02-10T04:39:04;102595.53;;;10.67;31.88
38227;BME280;24026;49.446;8.576;2023-02-10T04:41:24;102603.53;;;10.67;32.00
38227;BME280;24026;49.446;8.576;2023-02-10T04:43:45;102598.38;;;10.65;31.96
38227;BME280;24026;49.446;8.576;2023-02-10T04:46:05;102603.88;;;10.64;31.75
38227;BME280;24026;49.446;8.576;2023-02-10T04:48:25;102607.59;;;10.63;31.96
38227;BME280;24026;49.446;8.576;2023-02-10T04:50:46;102615.56;;;10.63;31.84
38227;BME280;24026;49.446;8.576;2023-02-10T04:53:07;102618.41;;;10.61;31.77
38227;BME280;24026;49.446;8.576;2023-02-10T04:55:28;102613.09;;;10.61;31.78
38227;BME280;24026;49.446;8.576;2023-02-10T04:57:48;102624.72;;;10.60;31.99
38227;BME280;24026;49.446;8.576;2023-02-10T05:00:09;102624.09;;;10.58;31.89
38227;BME280;24026;49.446;8.576;2023-02-10T05:02:30;102622.25;;;10.59;31.88
38227;BME280;24026;49.446;8.576;2023-02-10T05:04:50;102632.88;;;10.59;31.63
38227;BME280;24026;49.446;8.576;2023-02-10T05:07:11;102633.91;;;10.57;32.06
38227;BME280;24026;49.446;8.576;2023-02-10T05:09:31;102634.91;;;10.56;32.00
38227;BME280;24026;49.446;8.576;2023-02-10T05:11:52;102635.91;;;10.55;31.93
38227;BME280;24026;49.446;8.576;2023-02-10T05:14:12;102642.25;;;10.54;32.00
38227;BME280;24026;49.446;8.576;2023-02-10T05:16:33;102642.25;;;10.54;32.08
38227;BME280;24026;49.446;8.576;2023-02-10T05:18:53;102640.59;;;10.53;32.08
38227;BME280;24026;49.446;8.576;2023-02-10T05:21:14;102640.78;;;10.52;32.08
38227;BME280;24026;49.446;8.576;2023-02-10T05:23:34;102633.66;;;10.52;31.87
38227;BME280;24026;49.446;8.576;2023-02-10T05:25:55;102647.94;;;10.51;31.86
38227;BME280;24026;49.446;8.576;2023-02-10T05:28:15;102651.59;;;10.50;32.13
38227;BME280;24026;49.446;8.576;2023-02-10T05:30:36;102647.31;;;10.49;31.86
38227;BME280;24026;49.446;8.576;2023-02-10T05:32:56;102648.50;;;10.47;32.21
38227;BME280;24026;49.446;8.576;2023-02-10T05:35:17;102650.97;;;10.48;32.04
38227;BME280;24026;49.446;8.576;2023-02-10T05:37:37;102653.81;;;10.47;31.96
38227;BME280;24026;49.446;8.576;2023-02-10T05:39:58;102655.66;;;10.46;31.99
38227;BME280;24026;49.446;8.576;2023-02-10T05:42:18;102659.94;;;10.47;31.94
38227;BME280;24026;49.446;8.576;2023-02-10T05:44:39;102650.34;;;10.46;32.14
38227;BME280;24026;49.446;8.576;2023-02-10T05:46:59;102653.81;;;10.47;32.07
38227;BME280;24026;49.446;8.576;2023-02-10T05:49:20;102647.22;;;10.43;32.09
38227;BME280;24026;49.446;8.576;2023-02-10T05:51:41;102647.22;;;10.43;31.93
38227;BME280;24026;49.446;8.576;2023-02-10T05:54:01;102646.38;;;10.42;32.09
38227;BME280;24026;49.446;8.576;2023-02-10T05:56:23;102647.41;;;10.41;32.10
38227;BME280;24026;49.446;8.576;2023-02-10T05:58:44;102648.41;;;10.40;32.04
38227;BME280;24026;49.446;8.576;2023-02-10T06:01:08;102660.06;;;10.39;32.03
38227;BME280;24026;49.446;8.576;2023-02-10T06:03:29;102661.72;;;10.40;32.24
38227;BME280;24026;49.446;8.576;2023-02-10T06:05:49;102660.44;;;10.36;32.27
38227;BME280;24026;49.446;8.576;2023-02-10T06:08:10;102673.72;;;10.36;32.23
38227;BME280;24026;49.446;8.576;2023-02-10T06:10:32;102679.69;;;10.38;32.20
38227;BME280;24026;49.446;8.576;2023-02-10T06:12:54;102682.97;;;10.40;31.96
38227;BME280;24026;49.446;8.576;2023-02-10T06:15:14;102684.81;;;10.40;32.09
38227;BME280;24026;49.446;8.576;2023-02-10T06:17:35;102688.38;;;10.47;31.90
38227;BME280;24026;49.446;8.576;2023-02-10T06:19:55;102690.38;;;10.60;32.06
38227;BME280;24026;49.446;8.576;2023-02-10T06:22:16;102695.69;;;10.74;31.91
38227;BME280;24026;49.446;8.576;2023-02-10T06:24:36;102695.47;;;10.91;31.48
38227;BME280;24026;49.446;8.576;2023-02-10T06:26:58;102699.34;;;11.10;31.27
38227;BME280;24026;49.446;8.576;2023-02-10T06:29:19;102701.59;;;11.28;31.10
38227;BME280;24026;49.446;8.576;2023-02-10T06:31:41;102691.31;;;11.46;30.50
38227;BME280;24026;49.446;8.576;2023-02-10T06:34:03;102695.53;;;11.62;30.33
38227;BME280;24026;49.446;8.576;2023-02-10T06:36:24;102696.66;;;11.75;30.39
38227;BME280;24026;49.446;8.576;2023-02-10T06:38:46;102688.97;;;11.86;30.44
38227;BME280;24026;49.446;8.576;2023-02-10T06:41:09;102693.38;;;12.01;30.18
38227;BME280;24026;49.446;8.576;2023-02-10T06:43:30;102687.50;;;12.12;30.02
38227;BME280;24026;49.446;8.576;2023-02-10T06:45:52;102688.84;;;12.30;29.90
38227;BME280;24026;49.446;8.576;2023-02-10T06:48:14;102695.69;;;12.46;29.63
38227;BME280;24026;49.446;8.576;2023-02-10T06:50:35;102689.00;;;12.56;29.45
38227;BME280;24026;49.446;8.576;2023-02-10T06:52:58;102692.09;;;12.67;29.73
38227;BME280;24026;49.446;8.576;2023-02-10T06:55:19;102693.16;;;12.79;29.61
38227;BME280;24026;49.446;8.576;2023-02-10T06:57:41;102699.78;;;12.90;29.40
38227;BME280;24026;49.446;8.576;2023-02-10T07:00:04;102701.44;;;12.97;29.04
38227;BME280;24026;49.446;8.576;2023-02-10T07:02:26;102695.69;;;13.07;28.93
38227;BME280;24026;49.446;8.576;2023-02-10T07:04:47;102701.28;;;13.19;28.68
38227;BME280;24026;49.446;8.576;2023-02-10T07:07:07;102701.06;;;13.27;28.75
38227;BME280;24026;49.446;8.576;2023-02-10T07:09:29;102693.50;;;13.38;28.66
38227;BME280;24026;49.446;8.576;2023-02-10T07:11:51;102700.72;;;13.44;28.56
38227;BME280;24026;49.446;8.576;2023-02-10T07:14:11;102701.94;;;13.55;28.55
38227;BME280;24026;49.446;8.576;2023-02-10T07:16:32;102703.81;;;13.61;28.68
38227;BME280;24026;49.446;8.576;2023-02-10T07:18:52;102705.06;;;13.71;28.43
38227;BME280;24026;49.446;8.576;2023-02-10T07:21:13;102711.81;;;13.81;28.36
38227;BME280;24026;49.446;8.576;2023-02-10T07:23:34;102712.22;;;13.91;28.33
38227;BME280;24026;49.446;8.576;2023-02-10T07:25:57;102712.81;;;14.00;28.26
38227;BME280;24026;49.446;8.576;2023-02-10T07:28:19;102708.91;;;14.09;28.50
38227;BME280;24026;49.446;8.576;2023-02-10T07:30:40;102719.56;;;14.22;28.32
38227;BME280;24026;49.446;8.576;2023-02-10T07:33:01;102712.97;;;14.32;28.23
38227;BME280;24026;49.446;8.576;2023-02-10T07:35:24;102718.31;;;14.38;27.93
38227;BME280;24026;49.446;8.576;2023-02-10T07:37:45;102710.06;;;14.40;27.97
38227;BME280;24026;49.446;8.576;2023-02-10T07:40:07;102714.56;;;14.46;27.88
38227;BME280;24026;49.446;8.576;2023-02-10T07:42:29;102713.72;;;14.52;27.94
38227;BME280;24026;49.446;8.576;2023-02-10T07:44:54;102706.53;;;14.59;27.74
38227;BME280;24026;49.446;8.576;2023-02-10T07:47:15;102704.22;;;14.70;27.56
38227;BME280;24026;49.446;8.576;2023-02-10T07:49:36;102698.19;;;14.81;27.57
38227;BME280;24026;49.446;8.576;2023-02-10T07:51:57;102697.34;;;14.87;27.67
38227;BME280;24026;49.446;8.576;2023-02-10T07:54:20;102698.75;;;14.90;27.61
38227;BME280;24026;49.446;8.576;2023-02-10T07:56:41;102701.19;;;14.98;27.55
38227;BME280;24026;49.446;8.576;2023-02-10T07:59:03;102705.69;;;15.04;27.28
38227;BME280;24026;49.446;8.576;2023-02-10T08:01:23;102707.75;;;15.02;27.13
38227;BME280;24026;49.446;8.576;2023-02-10T08:03:45;102709.34;;;15.10;27.17
38227;BME280;24026;49.446;8.576;2023-02-10T08:06:06;102706.84;;;15.15;27.17
38227;BME280;24026;49.446;8.576;2023-02-10T08:08:27;102710.91;;;15.24;27.00
38227;BME280;24026;49.446;8.576;2023-02-10T08:10:49;102705.50;;;15.31;27.04
38227;BME280;24026;49.446;8.576;2023-02-10T08:13:11;102710.22;;;15.35;26.93
38227;BME280;24026;49.446;8.576;2023-02-10T08:15:33;102703.97;;;15.42;26.75
38227;BME280;24026;49.446;8.576;2023-02-10T08:17:54;102705.19;;;15.46;26.69
38227;BME280;24026;49.446;8.576;2023-02-10T08:20:14;102715.28;;;15.50;26.54
38227;BME280;24026;49.446;8.576;2023-02-10T08:22:36;102706.97;;;15.59;26.83
38227;BME280;24026;49.446;8.576;2023-02-10T08:24:56;102713.94;;;15.60;26.65
38227;BME280;24026;49.446;8.576;2023-02-10T08:27:18;102714.53;;;15.62;26.59
38227;BME280;24026;49.446;8.576;2023-02-10T08:29:39;102717.94;;;15.50;26.99
38227;BME280;24026;49.446;8.576;2023-02-10T08:32:01;102720.78;;;15.30;27.11
38227;BME280;24026;49.446;8.576;2023-02-10T08:34:22;102721.25;;;15.21;27.36
38227;BME280;24026;49.446;8.576;2023-02-10T08:36:44;102729.56;;;15.06;27.43
38227;BME280;24026;49.446;8.576;2023-02-10T08:39:05;102734.78;;;14.94;27.69
38227;BME280;24026;49.446;8.576;2023-02-10T08:41:27;102737.53;;;14.80;27.89
38227;BME280;24026;49.446;8.576;2023-02-10T08:43:51;102744.34;;;14.70;27.97
38227;BME280;24026;49.446;8.576;2023-02-10T08:46:14;102732.19;;;14.80;28.19
38227;BME280;24026;49.446;8.576;2023-02-10T08:48:35;102732.19;;;14.80;27.92
38227;BME280;24026;49.446;8.576;2023-02-10T08:50:56;102737.97;;;14.71;28.08
38227;BME280;24026;49.446;8.576;2023-02-10T08:53:18;102731.38;;;14.67;28.20
38227;BME280;24026;49.446;8.576;2023-02-10T08:55:42;102740.84;;;14.76;27.97
38227;BME280;24026;49.446;8.576;2023-02-10T08:58:03;102734.41;;;14.90;27.96
38227;BME280;24026;49.446;8.576;2023-02-10T09:00:24;102742.78;;;15.00;27.65
38227;BME280;24026;49.446;8.576;2023-02-10T09:02:48;102745.59;;;15.12;27.74
38227;BME280;24026;49.446;8.576;2023-02-10T09:05:09;102744.94;;;15.24;27.48
38227;BME280;24026;49.446;8.576;2023-02-10T09:07:30;102747.06;;;15.40;27.52
38227;BME280;24026;49.446;8.576;2023-02-10T09:09:51;102749.06;;;15.51;27.39
38227;BME280;24026;49.446;8.576;2023-02-10T09:12:12;102748.13;;;15.64;27.27
38227;BME280;24026;49.446;8.576;2023-02-10T09:14:33;102757.97;;;15.77;27.06
38227;BME280;24026;49.446;8.576;2023-02-10T09:16:55;102757.41;;;15.93;26.90
38227;BME280;24026;49.446;8.576;2023-02-10T09:19:17;102751.09;;;16.06;26.80
38227;BME280;24026;49.446;8.576;2023-02-10T09:21:39;102762.00;;;16.11;26.59
38227;BME280;24026;49.446;8.576;2023-02-10T09:24:00;102759.84;;;16.20;26.40
38227;BME280;24026;49.446;8.576;2023-02-10T09:26:22;102762.00;;;16.30;26.43
38227;BME280;24026;49.446;8.576;2023-02-10T09:28:43;102765.47;;;16.37;26.38
38227;BME280;24026;49.446;8.576;2023-02-10T09:31:07;102760.97;;;16.49;26.26
38227;BME280;24026;49.446;8.576;2023-02-10T09:33:29;102763.81;;;16.55;26.28
38227;BME280;24026;49.446;8.576;2023-02-10T09:35:50;102759.69;;;16.52;26.36
38227;BME280;24026;49.446;8.576;2023-02-10T09:38:12;102768.88;;;16.44;26.37
38227;BME280;24026;49.446;8.576;2023-02-10T09:41:45;102772.50;;;16.13;26.65
38227;BME280;24026;49.446;8.576;2023-02-10T09:43:57;102771.16;;;15.79;27.21
38227;BME280;24026;49.446;8.576;2023-02-10T09:53:27;102765.59;;;15.73;27.51
38227;BME280;24026;49.446;8.576;2023-02-10T09:55:52;102767.06;;;15.76;27.46
38227;BME280;24026;49.446;8.576;2023-02-10T10:00:45;102772.66;;;15.68;27.43
38227;BME280;24026;49.446;8.576;2023-02-10T10:03:12;102767.88;;;15.70;27.34
38227;BME280;24026;49.446;8.576;2023-02-10T10:07:56;102770.78;;;15.68;27.71
38227;BME280;24026;49.446;8.576;2023-02-10T10:10:27;102773.47;;;15.68;27.48
38227;BME280;24026;49.446;8.576;2023-02-10T10:12:50;102775.91;;;15.77;27.37
38227;BME280;24026;49.446;8.576;2023-02-10T10:15:15;102776.31;;;15.73;27.23
38227;BME280;24026;49.446;8.576;2023-02-10T10:18:01;102775.13;;;15.69;27.48
38227;BME280;24026;49.446;8.576;2023-02-10T10:23:57;102770.94;;;15.73;27.30
38227;BME280;24026;49.446;8.576;2023-02-10T10:31:30;102765.41;;;15.68;27.54
38227;BME280;24026;49.446;8.576;2023-02-10T10:33:59;102759.31;;;15.86;27.28
38227;BME280;24026;49.446;8.576;2023-02-10T10:36:40;102756.97;;;15.97;27.09
38227;BME280;24026;49.446;8.576;2023-02-10T10:39:40;102761.03;;;16.06;27.01
38227;BME280;24026;49.446;8.576;2023-02-10T10:44:41;102755.25;;;16.27;26.79
38227;BME280;24026;49.446;8.576;2023-02-10T10:47:13;102747.84;;;16.23;27.21
38227;BME280;24026;49.446;8.576;2023-02-10T10:49:36;102744.66;;;16.14;27.01
38227;BME280;24026;49.446;8.576;2023-02-10T10:51:56;102751.69;;;16.08;27.10
38227;BME280;24026;49.446;8.576;2023-02-10T10:54:19;102746.84;;;15.99;27.31
38227;BME280;24026;49.446;8.576;2023-02-10T10:56:56;102754.69;;;15.68;27.66
38227;BME280;24026;49.446;8.576;2023-02-10T10:59:27;102746.66;;;15.68;27.75
38227;BME280;24026;49.446;8.576;2023-02-10T11:01:49;102746.66;;;15.68;27.76
38227;BME280;24026;49.446;8.576;2023-02-10T11:04:20;102747.34;;;15.64;27.78
38227;BME280;24026;49.446;8.576;2023-02-10T11:06:45;102754.53;;;15.63;27.87
38227;BME280;24026;49.446;8.576;2023-02-10T11:11:43;102752.34;;;15.53;28.02
38227;BME280;24026;49.446;8.576;2023-02-10T11:14:17;102747.66;;;15.49;28.12
38227;BME280;24026;49.446;8.576;2023-02-10T11:16:57;102749.94;;;15.45;27.96
38227;BME280;24026;49.446;8.576;2023-02-10T11:19:26;102743.97;;;15.43;28.16
38227;BME280;24026;49.446;8.576;2023-02-10T11:21:53;102749.28;;;15.50;27.88
38227;BME280;24026;49.446;8.576;2023-02-10T11:24:33;102742.56;;;15.41;28.16
38227;BME280;24026;49.446;8.576;2023-02-10T11:27:13;102744.69;;;15.32;28.29
38227;BME280;24026;49.446;8.576;2023-02-10T11:29:46;102742.44;;;15.29;28.16
38227;BME280;24026;49.446;8.576;2023-02-10T11:32:30;102738.56;;;15.18;28.46
38227;BME280;24026;49.446;8.576;2023-02-10T11:34:55;102729.75;;;15.11;28.74
38227;BME280;24026;49.446;8.576;2023-02-10T11:37:26;102724.81;;;15.08;28.79
38227;BME280;24026;49.446;8.576;2023-02-10T11:39:48;102729.41;;;15.00;28.84
38227;BME280;24026;49.446;8.576;2023-02-10T11:42:28;102723.91;;;14.89;28.81
38227;BME280;24026;49.446;8.576;2023-02-10T11:47:39;102716.47;;;14.91;29.15
38227;BME280;24026;49.446;8.576;2023-02-10T11:50:00;102713.19;;;14.89;28.99
38227;BME280;24026;49.446;8.576;2023-02-10T11:52:22;102711.53;;;14.88;28.92
38227;BME280;24026;49.446;8.576;2023-02-10T11:54:45;102717.28;;;14.91;28.84
38227;BME280;24026;49.446;8.576;2023-02-10T12:05:28;102694.75;;;14.67;29.34
38227;BME280;24026;49.446;8.576;2023-02-10T12:10:49;102687.34;;;14.69;29.23
38227;BME280;24026;49.446;8.576;2023-02-10T12:19:06;102686.75;;;14.60;29.36
38227;BME280;24026;49.446;8.576;2023-02-10T12:25:20;102698.50;;;14.59;29.31
38227;BME280;24026;49.446;8.576;2023-02-10T12:30:33;102699.09;;;14.61;29.39
38227;BME280;24026;49.446;8.576;2023-02-10T12:39:00;102685.50;;;14.63;29.41
38227;BME280;24026;49.446;8.576;2023-02-10T12:41:44;102695.56;;;14.68;29.38
38227;BME280;24026;49.446;8.576;2023-02-10T12:52:32;102685.47;;;14.70;29.39
38227;BME280;24026;49.446;8.576;2023-02-10T12:54:59;102670.84;;;14.72;29.39
38227;BME280;24026;49.446;8.576;2023-02-10T12:57:45;102674.19;;;14.61;29.45
38227;BME280;24026;49.446;8.576;2023-02-10T13:00:21;102671.28;;;14.69;29.33
38227;BME280;24026;49.446;8.576;2023-02-10T13:05:30;102660.78;;;14.68;29.24
38227;BME280;24026;49.446;8.576;2023-02-10T13:07:55;102661.34;;;14.76;29.23
38227;BME280;24026;49.446;8.576;2023-02-10T13:10:37;102664.44;;;14.73;29.15
38227;BME280;24026;49.446;8.576;2023-02-10T13:13:05;102670.81;;;14.79;29.04
38227;BME280;24026;49.446;8.576;2023-02-10T13:15:40;102673.16;;;14.69;29.34
38227;BME280;24026;49.446;8.576;2023-02-10T13:18:14;102672.50;;;14.67;29.37
38227;BME280;24026;49.446;8.576;2023-02-10T13:26:15;102668.22;;;14.66;29.41
38227;BME280;24026;49.446;8.576;2023-02-10T13:36:40;102659.34;;;14.72;29.31
38227;BME280;24026;49.446;8.576;2023-02-10T13:39:13;102662.84;;;14.66;29.42
38227;BME280;24026;49.446;8.576;2023-02-10T13:41:43;102657.69;;;14.71;29.26
38227;BME280;24026;49.446;8.576;2023-02-10T13:44:28;102661.38;;;14.70;29.26
38227;BME280;24026;49.446;8.576;2023-02-10T13:47:10;102657.47;;;14.72;29.18
38227;BME280;24026;49.446;8.576;2023-02-10T13:49:31;102658.88;;;14.75;29.17
38227;BME280;24026;49.446;8.576;2023-02-10T13:52:00;102655.59;;;14.73;29.28
38227;BME280;24026;49.446;8.576;2023-02-10T13:54:30;102659.94;;;14.74;29.34
38227;BME280;24026;49.446;8.576;2023-02-10T13:56:53;102657.66;;;14.77;29.21
38227;BME280;24026;49.446;8.576;2023-02-10T14:01:41;102659.91;;;14.80;29.26
38227;BME280;24026;49.446;8.576;2023-02-10T14:04:04;102656.19;;;14.75;29.22
38227;BME280;24026;49.446;8.576;2023-02-10T14:06:38;102653.53;;;14.75;29.20
38227;BME280;24026;49.446;8.576;2023-02-10T14:09:05;102650.69;;;14.70;29.19
38227;BME280;24026;49.446;8.576;2023-02-10T14:11:28;102652.19;;;14.59;29.21
38227;BME280;24026;49.446;8.576;2023-02-10T14:14:00;102653.59;;;14.55;29.48
38227;BME280;24026;49.446;8.576;2023-02-10T14:18:45;102654.47;;;14.49;29.62
38227;BME280;24026;49.446;8.576;2023-02-10T14:21:14;102656.69;;;14.58;29.51
38227;BME280;24026;49.446;8.576;2023-02-10T14:23:39;102649.09;;;14.62;29.33
38227;BME280;24026;49.446;8.576;2023-02-10T14:26:14;102653.38;;;14.56;29.52